createdAt,value
2023-03-29T00:04:24.429Z,101949.67
2023-03-29T00:08:53.873Z,101945.84
2023-03-29T00:13:23.135Z,101943.22
2023-03-29T00:34:51.760Z,101931.91
2023-03-29T00:39:23.142Z,101926.67
2023-03-29T00:43:28.704Z,101928.74
2023-03-29T00:47:58.839Z,101927.00
2023-03-29T00:56:38.466Z,101916.58
2023-03-29T01:01:11.936Z,101911.34
2023-03-29T01:05:40.741Z,101909.77
2023-03-29T01:10:10.672Z,101906.32
2023-03-29T01:33:02.872Z,101869.27
2023-03-29T01:37:37.710Z,101857.44
2023-03-29T01:42:06.688Z,101856.58
2023-03-29T01:46:43.345Z,101852.41
2023-03-29T02:08:28.115Z,101810.23
2023-03-29T02:12:57.546Z,101814.40
2023-03-29T02:17:26.501Z,101812.65
2023-03-29T02:21:55.715Z,101804.80
2023-03-29T02:43:42.446Z,101774.29
2023-03-29T02:48:20.215Z,101770.59
2023-03-29T02:52:51.712Z,101766.91
2023-03-29T02:57:09.501Z,101757.32
2023-03-29T03:01:27.839Z,101759.73
2023-03-29T03:05:56.995Z,101748.59
2023-03-29T03:31:58.921Z,101724.80
2023-03-29T03:36:05.190Z,101719.06
2023-03-29T03:40:35.866Z,101713.84
2023-03-29T04:02:47.322Z,101721.05
2023-03-29T04:07:22.268Z,101717.92
2023-03-29T04:16:05.309Z,101718.48
2023-03-29T04:20:37.881Z,101712.05
2023-03-29T04:25:08.319Z,101712.41
2023-03-29T04:59:12.603Z,101685.63
2023-03-29T05:03:40.259Z,101682.67
2023-03-29T05:08:09.641Z,101676.58
2023-03-29T05:12:38.837Z,101670.13
2023-03-29T05:16:49.111Z,101670.29
2023-03-29T06:25:08.425Z,101643.01
2023-03-29T06:29:24.077Z,101643.63
2023-03-29T06:33:54.150Z,101643.01
2023-03-29T06:59:54.135Z,101619.85
2023-03-29T07:04:17.951Z,101618.38
2023-03-29T07:08:35.825Z,101616.38
2023-03-29T07:12:19.324Z,101615.26
2023-03-29T07:16:10.401Z,101614.18
2023-03-29T07:42:18.499Z,101598.80
2023-03-29T07:46:48.848Z,101593.55
2023-03-29T07:50:52.191Z,101589.38
2023-03-29T08:06:32.208Z,101574.27
2023-03-29T08:10:53.119Z,101571.38
2023-03-29T08:15:24.522Z,101571.18
2023-03-29T08:19:53.428Z,101566.39
2023-03-29T08:24:04.895Z,101564.86
2023-03-29T08:28:17.346Z,101561.66
2023-03-29T08:32:39.318Z,101563.08
2023-03-29T08:36:54.135Z,101553.27
2023-03-29T09:03:00.519Z,101537.17
2023-03-29T09:07:22.217Z,101536.46
2023-03-29T09:11:52.926Z,101535.33
2023-03-29T09:16:23.258Z,101535.70
2023-03-29T09:20:42.176Z,101528.63
2023-03-29T09:24:59.726Z,101521.78
2023-03-29T09:29:45.664Z,101518.66
2023-03-29T09:34:19.965Z,101513.25
2023-03-29T09:38:45.700Z,101501.23
2023-03-29T10:09:05.201Z,101482.83
2023-03-29T10:13:24.375Z,101476.83
2023-03-29T10:17:39.702Z,101475.16
2023-03-29T10:21:43.321Z,101475.27
2023-03-29T10:26:07.001Z,101475.75
2023-03-29T10:30:14.045Z,101475.46
2023-03-29T10:34:31.098Z,101465.38
2023-03-29T10:38:29.461Z,101452.99
2023-03-29T10:42:32.591Z,101443.57
2023-03-29T11:32:36.165Z,101402.31
2023-03-29T11:39:46.450Z,101395.88
2023-03-29T11:46:19.220Z,101401.49
2023-03-29T11:50:43.955Z,101395.77
2023-03-29T11:54:53.056Z,101391.81
2023-03-29T11:58:39.025Z,101392.42
2023-03-29T12:02:34.377Z,101385.98
2023-03-29T12:06:41.054Z,101378.73
2023-03-29T12:09:51.327Z,101374.56
2023-03-29T12:13:20.150Z,101367.80
2023-03-29T12:17:01.320Z,101361.98
2023-03-29T12:20:39.920Z,101355.48
2023-03-29T12:24:34.625Z,101352.55
2023-03-29T12:27:53.584Z,101349.76
2023-03-29T12:32:20.914Z,101341.27
2023-03-29T12:35:48.959Z,101338.34
2023-03-29T12:40:06.469Z,101331.01
2023-03-29T12:43:51.052Z,101325.73
2023-03-29T12:47:51.295Z,101319.10
2023-03-29T12:50:35.033Z,101322.28
2023-03-29T12:53:34.582Z,101318.21
2023-03-29T12:57:58.962Z,101323.06
2023-03-29T13:01:48.621Z,101324.55
2023-03-29T13:05:29.804Z,101319.41
2023-03-29T13:08:51.373Z,101315.05
2023-03-29T13:12:34.734Z,101314.70
2023-03-29T13:16:29.074Z,101311.25
2023-03-29T13:20:19.598Z,101305.63
2023-03-29T13:24:39.331Z,101297.38
2023-03-29T13:29:17.351Z,101300.15
2023-03-29T13:33:53.440Z,101293.14
2023-03-29T13:38:18.615Z,101286.69
2023-03-29T13:41:46.669Z,101277.04
2023-03-29T13:45:10.693Z,101269.98
2023-03-29T13:49:24.360Z,101266.09
2023-03-29T13:52:48.576Z,101259.70
2023-03-29T13:55:37.618Z,101254.48
2023-03-29T13:59:13.921Z,101255.84
2023-03-29T14:02:03.490Z,101257.81
2023-03-29T14:04:44.405Z,101264.81
2023-03-29T14:08:14.501Z,101266.30
2023-03-29T14:11:58.733Z,101262.71
2023-03-29T14:16:04.777Z,101262.20
2023-03-29T14:19:39.870Z,101255.23
2023-03-29T14:22:44.489Z,101250.72
2023-03-29T14:25:17.393Z,101245.22
2023-03-29T14:28:40.199Z,101237.70
2023-03-29T14:31:59.849Z,101238.42
2023-03-29T14:34:29.454Z,101231.18
2023-03-29T14:37:24.843Z,101226.13
2023-03-29T14:39:59.467Z,101220.95
2023-03-29T14:43:08.403Z,101215.10
2023-03-29T14:45:43.955Z,101206.27
2023-03-29T14:48:33.434Z,101218.35
2023-03-29T14:51:14.730Z,101219.05
2023-03-29T14:53:51.820Z,101223.34
2023-03-29T14:56:26.312Z,101220.75
2023-03-29T14:59:42.257Z,101228.30
2023-03-29T15:02:41.354Z,101232.82
2023-03-29T15:05:38.818Z,101239.06
2023-03-29T15:08:29.487Z,101244.88
2023-03-29T15:11:38.496Z,101243.46
2023-03-29T15:14:19.888Z,101233.16
2023-03-29T15:17:52.120Z,101234.91
2023-03-29T15:20:57.880Z,101238.09
2023-03-29T15:23:39.710Z,101236.60
2023-03-29T15:26:17.523Z,101241.05
2023-03-29T15:29:03.932Z,101246.98
2023-03-29T15:32:03.432Z,101242.69
2023-03-29T15:34:39.798Z,101242.80
2023-03-29T15:37:31.482Z,101241.08
2023-03-29T15:40:31.611Z,101240.80
2023-03-29T15:43:20.014Z,101236.42
2023-03-29T15:45:56.305Z,101237.67
2023-03-29T15:48:38.350Z,101238.38
2023-03-29T15:51:28.111Z,101238.63
2023-03-29T15:53:57.368Z,101238.30
2023-03-29T15:56:31.411Z,101235.46
2023-03-29T16:00:02.225Z,101234.92
2023-03-29T16:03:48.669Z,101232.61
2023-03-29T16:06:50.163Z,101227.61
2023-03-29T16:09:25.945Z,101224.41
2023-03-29T16:12:24.820Z,101221.17
2023-03-29T16:15:12.231Z,101218.63
2023-03-29T16:18:11.672Z,101215.05
2023-03-29T16:21:13.971Z,101209.65
2023-03-29T16:23:52.496Z,101202.27
2023-03-29T16:26:40.994Z,101198.95
2023-03-29T16:29:28.122Z,101198.30
2023-03-29T16:31:56.605Z,101195.70
2023-03-29T16:34:28.836Z,101196.83
2023-03-29T16:37:13.593Z,101200.77
2023-03-29T16:39:48.584Z,101201.92
2023-03-29T16:42:36.239Z,101200.79
2023-03-29T16:45:36.964Z,101200.17
2023-03-29T16:49:16.264Z,101189.41
2023-03-29T16:52:05.288Z,101185.10
2023-03-29T16:54:49.234Z,101179.89
2023-03-29T16:58:21.679Z,101180.67
2023-03-29T17:02:22.103Z,101174.70
2023-03-29T17:06:13.859Z,101175.38
2023-03-29T17:10:11.138Z,101167.05
2023-03-29T17:13:07.070Z,101168.45
2023-03-29T17:16:08.364Z,101167.71
2023-03-29T17:18:47.563Z,101168.34
2023-03-29T17:21:39.564Z,101171.94
2023-03-29T17:24:11.478Z,101171.84
2023-03-29T17:26:54.213Z,101175.09
2023-03-29T17:30:20.391Z,101176.19
2023-03-29T17:33:34.901Z,101180.73
2023-03-29T17:36:30.463Z,101182.59
2023-03-29T17:39:10.374Z,101181.96
2023-03-29T17:42:04.538Z,101181.54
2023-03-29T17:45:07.191Z,101179.13
2023-03-29T17:48:24.439Z,101178.53
2023-03-29T17:51:56.489Z,101182.32
2023-03-29T17:55:14.586Z,101180.20
2023-03-29T17:58:52.990Z,101179.26
2023-03-29T18:01:46.977Z,101182.14
2023-03-29T18:05:08.688Z,101182.54
2023-03-29T18:08:36.238Z,101185.08
2023-03-29T18:11:23.060Z,101182.64
2023-03-29T18:14:16.808Z,101181.41
2023-03-29T18:17:53.587Z,101184.10
2023-03-29T18:21:01.636Z,101179.39
2023-03-29T18:23:38.982Z,101182.25
2023-03-29T18:26:17.288Z,101180.30
2023-03-29T18:29:38.512Z,101178.40
2023-03-29T18:33:06.580Z,101180.92
2023-03-29T18:35:58.421Z,101182.04
2023-03-29T18:38:50.365Z,101183.47
2023-03-29T18:41:43.549Z,101187.77
2023-03-29T18:44:40.510Z,101189.21
2023-03-29T18:48:48.366Z,101192.81
2023-03-29T18:52:40.122Z,101190.04
2023-03-29T18:56:01.544Z,101188.16
2023-03-29T19:00:01.613Z,101187.15
2023-03-29T19:03:44.351Z,101194.14
2023-03-29T19:07:04.938Z,101197.95
2023-03-29T19:10:32.904Z,101188.47
2023-03-29T19:14:16.648Z,101187.13
2023-03-29T19:17:27.596Z,101186.50
2023-03-29T19:21:07.327Z,101182.20
2023-03-29T19:24:48.728Z,101176.27
2023-03-29T19:28:05.915Z,101173.34
2023-03-29T19:30:45.570Z,101172.37
2023-03-29T19:33:43.724Z,101171.33
2023-03-29T19:36:30.521Z,101167.70
2023-03-29T19:39:36.856Z,101162.63
2023-03-29T19:43:18.368Z,101158.91
2023-03-29T19:46:23.092Z,101161.95
2023-03-29T19:49:48.807Z,101164.47
2023-03-29T19:52:41.387Z,101161.34
2023-03-29T19:55:56.857Z,101160.34
2023-03-29T19:59:39.588Z,101156.45
2023-03-29T20:03:19.594Z,101153.48
2023-03-29T20:06:29.802Z,101151.50
2023-03-29T20:09:26.005Z,101155.34
2023-03-29T20:13:27.766Z,101151.08
2023-03-29T20:17:45.276Z,101147.71
2023-03-29T20:21:02.368Z,101145.02
2023-03-29T20:24:24.603Z,101132.80
2023-03-29T20:27:47.335Z,101132.74
2023-03-29T20:30:56.305Z,101128.84
2023-03-29T20:34:46.118Z,101128.98
2023-03-29T20:39:14.921Z,101129.33
2023-03-29T20:42:49.520Z,101126.11
2023-03-29T20:46:31.085Z,101122.73
2023-03-29T20:50:38.240Z,101117.41
2023-03-29T20:54:40.450Z,101114.79
2023-03-29T20:58:37.354Z,101108.97
2023-03-29T21:01:38.221Z,101102.83
2023-03-29T21:05:15.617Z,101100.88
2023-03-29T21:08:20.553Z,101095.80
2023-03-29T21:12:48.140Z,101097.25
2023-03-29T21:16:05.897Z,101093.40
2023-03-29T21:19:16.820Z,101088.69
2023-03-29T21:23:03.620Z,101090.13
2023-03-29T21:26:55.750Z,101091.92
2023-03-29T21:30:32.255Z,101085.75
2023-03-29T21:34:16.746Z,101082.30
2023-03-29T21:38:25.817Z,101079.36
2023-03-29T21:42:43.163Z,101072.16
2023-03-29T21:46:36.516Z,101065.29
2023-03-29T21:50:39.701Z,101059.39
2023-03-29T21:54:39.993Z,101056.38
2023-03-29T21:59:00.479Z,101058.00
2023-03-29T22:01:54.114Z,101053.98
2023-03-29T22:05:42.281Z,101055.95
2023-03-29T22:10:02.365Z,101055.19
2023-03-29T22:18:35.691Z,101047.42
2023-03-29T22:21:59.631Z,101045.91
2023-03-29T22:25:25.571Z,101039.48
2023-03-29T22:29:17.096Z,101038.52
2023-03-29T22:32:45.062Z,101039.54
2023-03-29T22:36:37.597Z,101033.99
2023-03-29T22:39:45.203Z,101033.91
2023-03-29T22:42:29.049Z,101030.63
2023-03-29T22:45:07.597Z,101033.65
2023-03-29T22:48:00.205Z,101033.31
2023-03-29T22:50:49.362Z,101031.39
2023-03-29T22:53:50.829Z,101027.88
2023-03-29T22:56:54.918Z,101026.30
2023-03-29T23:00:07.322Z,101025.16
2023-03-29T23:03:26.810Z,101023.79
2023-03-29T23:07:28.532Z,101020.86
2023-03-29T23:10:28.897Z,101016.00
2023-03-29T23:13:15.287Z,101008.80
2023-03-29T23:16:20.944Z,101008.29
2023-03-29T23:20:04.561Z,101009.18
2023-03-29T23:22:36.926Z,101013.80
2023-03-29T23:25:10.913Z,101014.66
2023-03-29T23:28:36.780Z,101008.29
2023-03-29T23:31:40.349Z,101008.10
2023-03-29T23:34:48.494Z,101004.23
2023-03-29T23:38:19.431Z,101002.98
2023-03-29T23:41:19.550Z,100999.52
2023-03-29T23:44:56.109Z,100997.05
2023-03-29T23:48:29.997Z,100995.48
2023-03-29T23:51:39.407Z,100990.40
2023-03-29T23:55:00.134Z,100987.02
2023-03-29T23:58:41.889Z,100985.09
